Time;durP1;ratioP1;P1;durP2;ratioP2;P2;SDS_P1;SDS_P2;PMS_P1;PMS_P2;Temp;Humidity;BMP_temperature;BMP_pressure;BME280_temperature;BME280_humidity;BME280_pressure;Samples;Min_cycle;Max_cycle;Signal;HPM_P1;HPM_P2
2022/05/15 00:06:03;;;;;;;76.03;71.50;;;;;;;15.31;100.00;101828.25;1994799;71;33359;-74
2022/05/15 00:11:49;;;;;;;73.17;68.77;;;;;;;15.28;100.00;101816.78;2015818;71;32918;-89
2022/05/15 00:17:36;;;;;;;75.67;71.20;;;;;;;15.58;100.00;101802.52;2016648;71;33378;-76
2022/05/15 00:23:24;;;;;;;74.97;70.37;;;;;;;15.35;100.00;101799.94;1991382;71;32765;-69
2022/05/15 00:29:09;;;;;;;76.47;72.03;;;;;;;15.55;100.00;101814.33;2002407;71;32842;-69
2022/05/15 00:34:54;;;;;;;72.47;68.20;;;;;;;15.67;100.00;101802.72;2008097;71;32783;-76
2022/05/15 00:40:40;;;;;;;75.67;70.83;;;;;;;15.52;100.00;101819.69;2016618;71;32830;-69
2022/05/15 00:46:28;;;;;;;74.83;70.23;;;;;;;15.36;100.00;101822.58;2007990;70;33363;-69
2022/05/15 00:52:16;;;;;;;79.27;74.47;;;;;;;15.25;100.00;101816.81;2007508;71;32834;-69
2022/05/15 00:58:06;;;;;;;78.13;73.10;;;;;;;15.24;100.00;101819.34;2006108;71;32819;-69
2022/05/15 01:03:52;;;;;;;77.77;73.00;;;;;;;15.18;100.00;101826.13;1997103;71;33332;-75
2022/05/15 01:09:37;;;;;;;77.83;73.23;;;;;;;15.16;100.00;101810.17;2014953;71;32945;-75
2022/05/15 01:15:26;;;;;;;81.00;75.93;;;;;;;15.16;100.00;101806.53;2006120;71;32815;-76
2022/05/15 01:21:24;;;;;;;77.97;73.20;;;;;;;15.08;100.00;101801.00;2000581;71;32835;-75
2022/05/15 01:27:10;;;;;;;80.00;74.80;;;;;;;15.10;100.00;101788.13;2012985;71;32933;-76
2022/05/15 01:32:57;;;;;;;77.03;72.53;;;;;;;14.87;100.00;101787.75;2016579;71;32839;-76
2022/05/15 01:38:43;;;;;;;80.17;74.90;;;;;;;14.84;100.00;101781.91;2017118;71;32841;-74
2022/05/15 01:44:27;;;;;;;81.13;76.17;;;;;;;14.64;100.00;101780.62;2013086;71;32923;-70
2022/05/15 01:50:15;;;;;;;79.43;74.03;;;;;;;14.65;100.00;101779.51;2014952;71;32826;-69
2022/05/15 01:56:03;;;;;;;78.67;73.67;;;;;;;14.51;100.00;101782.10;2009333;71;33359;-76
2022/05/15 02:01:47;;;;;;;79.73;74.73;;;;;;;14.59;100.00;101773.94;1998982;71;33331;-69
2022/05/15 02:07:32;;;;;;;78.50;73.80;;;;;;;14.63;100.00;101777.02;2005561;71;33407;-69
2022/05/15 02:13:16;;;;;;;76.17;71.47;;;;;;;14.52;100.00;101784.62;2003573;71;32829;-76
2022/05/15 02:19:03;;;;;;;75.23;70.60;;;;;;;14.77;100.00;101779.97;2013266;71;32961;-70
2022/05/15 02:24:47;;;;;;;77.83;72.80;;;;;;;14.56;100.00;101770.34;2002636;71;32891;-76
2022/05/15 02:30:31;;;;;;;75.67;71.07;;;;;;;14.64;100.00;101789.02;2014918;71;32926;-76
2022/05/15 02:36:16;;;;;;;77.13;72.20;;;;;;;14.91;100.00;101794.98;2014896;71;32874;-76
2022/05/15 02:42:02;;;;;;;78.43;73.63;;;;;;;14.78;100.00;101801.23;2015018;71;33373;-69
2022/05/15 02:47:47;;;;;;;80.40;75.53;;;;;;;14.70;100.00;101787.31;2004224;71;32853;-69
2022/05/15 02:53:31;;;;;;;78.27;73.37;;;;;;;14.50;100.00;101763.69;2011034;71;32888;-69
2022/05/15 02:59:16;;;;;;;76.73;71.67;;;;;;;14.56;100.00;101760.55;2004508;71;33284;-69
2022/05/15 03:05:00;;;;;;;77.40;72.37;;;;;;;14.41;100.00;101762.62;2015045;71;32826;-76
2022/05/15 03:10:46;;;;;;;78.83;73.50;;;;;;;14.50;100.00;101760.30;2003580;71;32912;-76
2022/05/15 03:16:31;;;;;;;77.93;72.43;;;;;;;14.59;100.00;101772.55;2016478;71;32828;-69
2022/05/15 03:22:15;;;;;;;77.17;71.93;;;;;;;14.74;100.00;101769.37;1995221;71;33224;-76
2022/05/15 03:27:59;;;;;;;75.47;69.73;;;;;;;14.75;100.00;101761.27;2000029;71;32921;-76
2022/05/15 03:33:45;;;;;;;77.13;71.73;;;;;;;14.72;100.00;101775.25;2003816;71;32847;-69
2022/05/15 03:39:30;;;;;;;76.43;71.17;;;;;;;14.77;100.00;101774.38;2014964;71;32898;-76
2022/05/15 03:45:19;;;;;;;75.77;70.20;;;;;;;14.68;100.00;101785.91;2018468;71;33306;-76
2022/05/15 03:51:03;;;;;;;77.47;72.17;;;;;;;14.53;100.00;101779.31;1998813;71;32809;-69
2022/05/15 03:56:50;;;;;;;77.13;71.83;;;;;;;14.66;100.00;101770.84;2007574;71;33306;-75
2022/05/15 04:02:38;;;;;;;77.90;72.47;;;;;;;14.66;100.00;101758.81;1917776;71;39888;-76
2022/05/15 04:08:27;;;;;;;75.73;69.83;;;;;;;14.58;100.00;101758.31;2009258;71;32915;-76
2022/05/15 04:14:11;;;;;;;73.83;68.13;;;;;;;14.49;100.00;101750.83;2009771;71;32767;-69
2022/05/15 04:19:55;;;;;;;76.13;70.13;;;;;;;14.61;100.00;101758.28;2000657;71;32768;-69
2022/05/15 04:25:41;;;;;;;73.37;67.63;;;;;;;14.74;100.00;101759.59;2009269;71;32897;-69
2022/05/15 04:31:25;;;;;;;72.13;66.07;;;;;;;14.63;100.00;101757.45;2013268;71;32887;-76
2022/05/15 04:37:10;;;;;;;69.77;64.07;;;;;;;14.66;100.00;101730.84;1998765;70;32909;-68
2022/05/15 04:42:55;;;;;;;66.13;60.17;;;;;;;14.47;100.00;101724.55;2011674;71;33371;-76
2022/05/15 04:48:39;;;;;;;64.20;58.53;;;;;;;14.24;100.00;101747.59;2006060;71;32792;-77
2022/05/15 04:54:25;;;;;;;65.77;59.53;;;;;;;14.16;100.00;101760.77;2013376;71;32807;-70
2022/05/15 05:00:14;;;;;;;60.83;55.43;;;;;;;14.21;100.00;101757.09;2000098;71;32806;-70
2022/05/15 05:05:58;;;;;;;67.10;61.20;;;;;;;14.16;100.00;101759.37;2013078;71;32916;-77
2022/05/15 05:11:42;;;;;;;67.23;61.43;;;;;;;14.07;100.00;101739.58;2000433;71;33310;-69
2022/05/15 05:17:26;;;;;;;67.17;60.83;;;;;;;14.34;100.00;101714.53;2000623;71;32862;-69
2022/05/15 05:23:10;;;;;;;71.30;65.03;;;;;;;14.29;100.00;101731.36;2008293;71;32774;-69
2022/05/15 05:28:57;;;;;;;70.57;64.70;;;;;;;14.26;100.00;101736.11;2009314;71;33347;-68
2022/05/15 05:34:41;;;;;;;69.87;64.13;;;;;;;14.24;100.00;101728.03;2014618;71;32849;-69
2022/05/15 05:40:26;;;;;;;72.60;66.67;;;;;;;14.22;100.00;101714.89;2009209;71;32866;-77
2022/05/15 05:46:10;;;;;;;72.33;66.50;;;;;;;14.15;100.00;101719.97;1994743;71;32839;-69
2022/05/15 05:51:49;;;;;;;72.23;65.90;;;;;;;14.24;100.00;101716.02;2000777;71;32452;-77
2022/05/15 05:57:34;;;;;;;71.33;64.87;;;;;;;14.28;100.00;101704.53;1977586;72;32942;-68
2022/05/15 06:09:23;;;;;;;77.80;71.47;;;;;;;14.28;100.00;101750.08;2016867;71;32933;-70
2022/05/15 06:15:10;;;;;;;74.50;68.40;;;;;;;14.20;100.00;101749.29;2004309;71;32771;-77
2022/05/15 06:20:55;;;;;;;74.97;69.00;;;;;;;14.19;100.00;101743.98;2006538;71;32883;-73
2022/05/15 06:26:39;;;;;;;68.23;62.13;;;;;;;14.17;100.00;101726.09;2005446;71;32832;-73
2022/05/15 06:32:23;;;;;;;72.03;65.60;;;;;;;14.20;100.00;101720.52;2007975;71;33342;-73
2022/05/15 06:38:09;;;;;;;71.13;64.93;;;;;;;14.35;100.00;101703.10;2013561;70;33243;-74
2022/05/15 06:43:53;;;;;;;75.03;68.33;;;;;;;14.49;100.00;101675.34;1995282;71;33254;-74
2022/05/15 06:49:37;;;;;;;74.77;68.67;;;;;;;14.62;100.00;101655.66;2013308;71;33334;-74
2022/05/15 06:58:35;;;;;;;78.10;72.10;;;;;;;14.76;100.00;101639.29;2045301;69;33120;-74
2022/05/15 07:01:08;;;;;;;76.20;69.57;;;;;;;14.85;100.00;101646.48;1934343;73;26325;-72
2022/05/15 07:03:39;;;;;;;80.60;74.23;;;;;;;14.96;100.00;101645.27;1935848;73;26208;-74
2022/05/15 07:06:10;;;;;;;77.10;71.10;;;;;;;15.06;100.00;101644.34;1967104;72;26324;-72
2022/05/15 07:08:40;;;;;;;82.93;75.77;;;;;;;14.99;100.00;101642.71;1934880;74;26184;-78
2022/05/15 07:11:12;;;;;;;77.87;71.00;;;;;;;14.90;100.00;101628.25;1937639;73;26541;-73
2022/05/15 07:13:42;;;;;;;79.43;72.73;;;;;;;15.01;100.00;101618.08;1937631;73;26293;-75
2022/05/15 07:16:12;;;;;;;81.80;75.30;;;;;;;15.05;100.00;101601.53;1967225;72;26201;-69
2022/05/15 07:18:43;;;;;;;76.83;70.17;;;;;;;15.04;100.00;101592.86;1933884;73;26684;-75
2022/05/15 07:21:13;;;;;;;76.00;69.20;;;;;;;15.14;100.00;101602.55;1937596;74;26785;-74
2022/05/15 07:23:44;;;;;;;77.03;70.53;;;;;;;15.28;100.00;101620.84;1931349;73;26216;-69
2022/05/15 07:26:14;;;;;;;79.90;73.30;;;;;;;15.36;100.00;101622.41;1937668;73;26220;-69
2022/05/15 07:28:50;;;;;;;77.93;71.80;;;;;;;15.34;100.00;101620.49;1929652;73;26304;-79
2022/05/15 07:31:18;;;;;;;75.23;69.03;;;;;;;15.42;100.00;101617.03;1967595;72;26789;-70
2022/05/15 07:33:50;;;;;;;77.63;71.40;;;;;;;15.56;100.00;101619.13;1935013;73;26212;-75
2022/05/15 07:36:21;;;;;;;75.23;68.77;;;;;;;15.64;100.00;101620.70;1940857;73;26289;-68
2022/05/15 07:38:51;;;;;;;76.40;69.73;;;;;;;15.81;100.00;101625.23;2014189;71;26241;-75
2022/05/15 07:41:22;;;;;;;78.40;71.73;;;;;;;15.90;100.00;101625.39;2016673;70;26187;-77
2022/05/15 07:43:52;;;;;;;74.47;68.03;;;;;;;15.83;100.00;101627.14;2016610;70;26223;-68
2022/05/15 07:46:22;;;;;;;79.93;72.97;;;;;;;15.83;100.00;101622.14;2019384;70;26207;-77
2022/05/15 07:48:54;;;;;;;78.80;72.10;;;;;;;15.91;100.00;101619.49;2015275;70;26673;-68
2022/05/15 07:51:24;;;;;;;81.33;74.70;;;;;;;15.95;100.00;101625.31;2012736;70;26316;-77
2022/05/15 07:53:54;;;;;;;79.53;72.87;;;;;;;15.89;100.00;101633.52;2015836;70;26291;-71
2022/05/15 07:56:25;;;;;;;82.20;75.20;;;;;;;15.96;100.00;101629.77;1984446;71;26254;-70
2022/05/15 07:58:55;;;;;;;81.03;74.57;;;;;;;15.93;100.00;101633.18;1980196;72;26278;-75
2022/05/15 08:01:26;;;;;;;77.47;70.20;;;;;;;16.14;100.00;101640.15;1980362;72;26351;-69
2022/05/15 08:03:56;;;;;;;79.40;73.00;;;;;;;16.47;100.00;101640.22;1980254;72;26193;-75
2022/05/15 08:09:14;;;;;;;85.20;78.23;;;;;;;16.64;100.00;101634.91;1979551;72;26212;-75
2022/05/15 08:11:44;;;;;;;81.23;74.80;;;;;;;16.51;100.00;101631.45;1979389;72;26175;-75
2022/05/15 08:14:16;;;;;;;83.93;77.27;;;;;;;16.54;100.00;101630.83;1979417;72;26205;-69
2022/05/15 08:16:47;;;;;;;86.10;78.53;;;;;;;16.48;100.00;101634.84;1979451;72;26186;-75
2022/05/15 08:24:53;;;;;;;86.03;79.60;;;;;;;16.70;100.00;101624.67;1979732;72;24188;-67
2022/05/15 08:27:24;;;;;;;85.47;78.77;;;;;;;16.59;100.00;101603.56;1979503;72;24177;-75
2022/05/15 08:33:19;;;;;;;85.80;79.13;;;;;;;16.68;100.00;101594.71;2002672;70;31437;-76
2022/05/15 08:42:01;;;;;;;87.80;80.83;;;;;;;16.96;100.00;101584.35;2051171;69;32513;-76
2022/05/15 08:44:34;;;;;;;90.20;83.27;;;;;;;17.19;100.00;101588.95;2010111;70;24210;-70
2022/05/15 08:47:12;;;;;;;84.77;78.30;;;;;;;17.34;100.00;101586.95;1941383;73;24161;-72
2022/05/15 08:49:44;;;;;;;84.83;78.57;;;;;;;17.34;100.00;101586.95;1927918;73;24169;-77
2022/05/15 08:52:17;;;;;;;87.03;80.60;;;;;;;17.37;100.00;101575.92;2013984;71;26262;-70
2022/05/15 08:54:52;;;;;;;88.77;82.27;;;;;;;17.07;100.00;101573.17;1927451;73;26247;-75
2022/05/15 08:57:27;;;;;;;91.07;84.20;;;;;;;16.88;100.00;101565.42;1970157;72;24193;-76
2022/05/15 09:00:00;;;;;;;90.83;83.87;;;;;;;16.77;100.00;101558.36;1975636;72;24150;-76
2022/05/15 09:02:30;;;;;;;90.47;83.47;;;;;;;16.67;100.00;101545.34;1977038;72;26709;-71
2022/05/15 09:05:00;;;;;;;90.17;82.47;;;;;;;16.67;100.00;101545.34;1983325;72;26359;-70
2022/05/15 09:07:39;;;;;;;88.23;81.50;;;;;;;16.75;100.00;101542.39;1977646;72;26616;-76
2022/05/15 09:10:22;;;;;;;88.63;81.93;;;;;;;16.75;100.00;101539.02;1980429;72;26192;-70
2022/05/15 09:12:58;;;;;;;88.37;81.77;;;;;;;16.81;100.00;101536.95;1976022;72;24145;-76
2022/05/15 09:15:31;;;;;;;90.17;83.10;;;;;;;16.85;100.00;101530.98;1976475;72;26695;-76
2022/05/15 09:18:05;;;;;;;86.43;79.67;;;;;;;17.15;100.00;101523.91;1980411;72;24204;-76
2022/05/15 09:20:43;;;;;;;79.57;73.10;;;;;;;17.15;100.00;101523.91;1976387;72;24220;-76
2022/05/15 09:23:21;;;;;;;94.23;87.53;;;;;;;17.20;100.00;101523.81;1976111;72;26235;-71
2022/05/15 09:25:58;;;;;;;89.27;82.30;;;;;;;17.37;100.00;101525.37;1984209;72;26350;-71
2022/05/15 09:28:30;;;;;;;81.67;75.13;;;;;;;17.64;100.00;101516.09;1990185;72;24131;-76
2022/05/15 09:31:02;;;;;;;91.40;84.73;;;;;;;17.77;100.00;101509.59;1978624;72;26265;-70
2022/05/15 09:33:35;;;;;;;85.43;78.70;;;;;;;18.00;100.00;101499.20;1975843;72;24193;-70
2022/05/15 09:36:24;;;;;;;81.30;74.90;;;;;;;18.25;100.00;101498.55;1976745;72;24709;-70
2022/05/15 09:39:13;;;;;;;78.00;71.73;;;;;;;18.31;100.00;101499.27;1982129;72;24227;-75
2022/05/15 09:48:05;;;;;;;83.47;77.40;;;;;;;18.49;100.00;101506.05;1999106;71;31331;-68
2022/05/15 09:54:07;;;;;;;77.67;71.67;;;;;;;18.54;100.00;101498.92;2002462;71;30870;-67
2022/05/15 10:00:03;;;;;;;72.40;67.43;;;;;;;18.63;100.00;101485.73;2014871;71;33453;-69
2022/05/15 10:06:01;;;;;;;76.27;70.57;;;;;;;18.71;100.00;101477.64;2007587;71;32967;-75
2022/05/15 10:11:48;;;;;;;76.93;71.00;;;;;;;18.97;100.00;101459.69;2007265;71;30944;-75
2022/05/15 10:17:41;;;;;;;72.63;67.43;;;;;;;19.12;100.00;101492.21;2011699;71;30955;-74
2022/05/15 10:20:16;;;;;;;73.80;68.77;;;;;;;18.98;100.00;101495.14;1958526;72;26600;-69
2022/05/15 10:22:49;;;;;;;74.80;69.80;;;;;;;18.94;100.00;101508.22;1969081;72;24190;-68
2022/05/15 10:25:22;;;;;;;75.57;70.50;;;;;;;18.94;100.00;101525.11;1963041;72;24237;-74
2022/05/15 10:31:11;;;;;;;75.47;69.73;;;;;;;18.88;100.00;101546.67;2002009;71;30994;-69
2022/05/15 10:37:04;;;;;;;71.13;66.43;;;;;;;19.17;100.00;101548.97;2014858;71;33395;-74
2022/05/15 10:39:39;;;;;;;69.17;64.47;;;;;;;19.24;100.00;101562.83;1982763;72;24601;-69
2022/05/15 10:42:15;;;;;;;69.90;65.27;;;;;;;19.19;100.00;101571.99;1967256;72;24352;-69
2022/05/15 10:44:51;;;;;;;63.97;59.80;;;;;;;19.28;100.00;101582.72;1959491;72;24156;-70
2022/05/15 10:50:43;;;;;;;46.70;43.80;;;;;;;19.23;100.00;101576.65;2009848;71;30961;-70
2022/05/15 10:59:32;;;;;;;46.43;43.77;;;;;;;19.20;100.00;101582.11;2000123;71;30976;-73
2022/05/15 11:02:07;;;;;;;47.17;44.33;;;;;;;19.15;100.00;101590.70;1976765;72;24240;-74
2022/05/15 11:04:43;;;;;;;48.53;45.87;;;;;;;19.05;100.00;101605.31;1972445;72;24238;-74
2022/05/15 11:07:16;;;;;;;47.10;44.40;;;;;;;19.00;100.00;101616.71;1971548;72;24153;-74
2022/05/15 11:09:50;;;;;;;55.07;51.77;;;;;;;18.92;100.00;101621.72;1974379;72;24606;-68
2022/05/15 11:15:44;;;;;;;62.00;58.60;;;;;;;18.54;100.00;101625.54;2016412;71;30883;-68
2022/05/15 11:18:26;;;;;;;64.70;60.97;;;;;;;18.41;100.00;101632.03;1979666;72;24212;-74
2022/05/15 11:24:15;;;;;;;75.27;70.80;;;;;;;18.04;100.00;101635.19;1995392;71;30899;-69
2022/05/15 11:30:04;;;;;;;78.70;73.57;;;;;;;17.76;100.00;101640.01;2015085;71;31071;-73
2022/05/15 11:36:17;;;;;;;76.50;71.03;;;;;;;17.28;100.00;101643.22;2018514;71;30926;-74
2022/05/15 11:42:17;;;;;;;78.60;72.73;;;;;;;17.18;100.00;101650.45;2003758;71;31015;-74
2022/05/15 11:48:07;;;;;;;79.03;73.07;;;;;;;16.86;100.00;101657.50;2012994;71;33334;-72
2022/05/15 11:53:57;;;;;;;78.00;71.80;;;;;;;16.76;100.00;101648.71;2014783;71;30893;-74
2022/05/15 11:59:49;;;;;;;75.83;69.93;;;;;;;16.79;100.00;101627.05;2006368;71;30941;-68
2022/05/15 12:06:06;;;;;;;82.37;76.20;;;;;;;16.95;100.00;101607.94;2012841;71;30897;-68
2022/05/15 12:11:54;;;;;;;75.70;69.30;;;;;;;16.81;100.00;101614.12;2008108;71;31305;-75
2022/05/15 12:17:54;;;;;;;77.03;71.00;;;;;;;16.63;100.00;101606.58;2001998;71;31006;-69
2022/05/15 12:30:12;;;;;;;78.40;72.10;;;;;;;16.61;100.00;101601.84;1998496;71;30910;-72
2022/05/15 12:36:00;;;;;;;75.33;69.47;;;;;;;16.64;100.00;101592.27;2014832;70;30926;-68
2022/05/15 12:41:46;;;;;;;79.13;72.93;;;;;;;16.63;100.00;101582.73;2014944;71;30912;-73
2022/05/15 12:47:33;;;;;;;74.07;68.27;;;;;;;16.53;100.00;101562.68;1991427;71;32885;-73
2022/05/15 12:53:23;;;;;;;70.67;64.93;;;;;;;16.81;100.00;101564.41;2009159;71;32943;-67
2022/05/15 12:59:12;;;;;;;76.30;69.90;;;;;;;16.86;100.00;101566.30;2005955;71;33372;-68
2022/05/15 13:04:58;;;;;;;78.77;72.57;;;;;;;16.97;100.00;101580.98;2011847;71;33364;-75
2022/05/15 13:10:47;;;;;;;80.33;74.07;;;;;;;17.10;100.00;101547.88;2000801;71;31327;-72
2022/05/15 13:16:39;;;;;;;81.07;74.77;;;;;;;16.80;100.00;101524.06;2018536;71;30947;-67
2022/05/15 13:22:29;;;;;;;75.07;68.80;;;;;;;17.00;100.00;101511.58;1999262;71;32864;-74
2022/05/15 13:28:16;;;;;;;81.13;74.77;;;;;;;17.12;100.00;101499.25;2016532;71;33374;-67
2022/05/15 13:34:02;;;;;;;74.17;67.97;;;;;;;17.21;100.00;101486.14;2016599;71;30997;-75
2022/05/15 13:45:53;;;;;;;77.60;71.37;;;;;;;17.18;100.00;101489.59;2000582;71;30876;-69
2022/05/15 13:51:42;;;;;;;77.50;71.43;;;;;;;17.13;100.00;101473.67;2016581;70;33363;-73
2022/05/15 13:57:34;;;;;;;81.43;75.20;;;;;;;17.18;100.00;101483.97;1972293;72;31002;-68
2022/05/15 14:03:32;;;;;;;80.17;74.07;;;;;;;17.32;100.00;101483.38;2015037;71;30945;-69
2022/05/15 14:09:48;;;;;;;84.20;77.27;;;;;;;17.08;100.00;101495.41;1991460;71;30883;-67
2022/05/15 14:15:40;;;;;;;82.17;75.77;;;;;;;17.02;100.00;101486.28;2012883;71;30869;-68
2022/05/15 14:21:29;;;;;;;87.53;80.83;;;;;;;17.05;100.00;101482.00;2014652;71;31391;-68
2022/05/15 14:27:13;;;;;;;80.67;74.13;;;;;;;17.03;100.00;101457.65;2000644;71;32864;-73
2022/05/15 14:33:00;;;;;;;91.20;84.43;;;;;;;16.97;100.00;101440.64;2011637;71;30815;-68
2022/05/15 14:38:50;;;;;;;86.60;79.53;;;;;;;17.06;100.00;101445.21;2002462;71;32763;-73
2022/05/15 14:44:35;;;;;;;97.70;90.20;;;;;;;16.88;100.00;101434.10;2013160;71;30948;-73
2022/05/15 14:50:22;;;;;;;101.13;93.67;;;;;;;16.92;100.00;101427.55;1994684;71;30995;-74
2022/05/15 14:56:11;;;;;;;94.53;87.10;;;;;;;16.97;100.00;101425.20;2003944;71;31440;-72
2022/05/15 15:01:58;;;;;;;101.70;93.67;;;;;;;17.17;100.00;101415.75;2014972;71;31412;-76
2022/05/15 15:07:45;;;;;;;102.43;94.80;;;;;;;17.17;100.00;101407.90;2006198;70;33303;-68
2022/05/15 15:13:32;;;;;;;103.87;96.63;;;;;;;17.19;100.00;101399.44;2013589;71;30958;-74
2022/05/15 15:19:19;;;;;;;100.40;92.50;;;;;;;17.30;100.00;101389.61;2013649;71;30835;-76
2022/05/15 15:25:04;;;;;;;101.03;92.83;;;;;;;17.25;100.00;101370.08;2011179;71;30883;-70
2022/05/15 15:30:48;;;;;;;94.43;86.27;;;;;;;17.36;100.00;101347.38;2016656;71;30897;-75
2022/05/15 15:36:33;;;;;;;101.90;93.40;;;;;;;17.50;100.00;101328.48;2015196;71;30956;-76
2022/05/15 15:42:18;;;;;;;106.23;97.57;;;;;;;17.37;100.00;101314.73;1995409;71;30868;-74
2022/05/15 15:48:02;;;;;;;95.40;87.60;;;;;;;17.41;100.00;101314.95;2005000;71;31362;-77
2022/05/15 15:53:49;;;;;;;95.20;87.60;;;;;;;17.46;100.00;101300.19;2000107;71;33336;-70
2022/05/15 15:59:32;;;;;;;92.70;85.10;;;;;;;17.69;100.00;101290.62;2016708;70;30862;-69
2022/05/15 16:05:22;;;;;;;96.70;88.53;;;;;;;17.62;100.00;101275.38;2014771;71;30860;-71
2022/05/15 16:11:06;;;;;;;96.73;88.90;;;;;;;17.82;100.00;101265.55;2015363;71;30892;-76
2022/05/15 16:16:50;;;;;;;97.03;88.90;;;;;;;17.85;100.00;101257.30;2018952;71;31528;-77
2022/05/15 16:22:35;;;;;;;102.67;94.60;;;;;;;17.87;100.00;101254.17;2014928;71;30944;-79
2022/05/15 16:28:24;;;;;;;98.03;89.87;;;;;;;17.90;100.00;101240.29;1998862;71;30906;-76
2022/05/15 16:34:08;;;;;;;103.43;94.80;;;;;;;17.83;100.00;101241.35;2017495;71;31382;-78
2022/05/15 16:39:53;;;;;;;107.87;99.20;;;;;;;17.72;100.00;101237.15;2014819;71;31449;-76
2022/05/15 16:45:38;;;;;;;104.63;96.23;;;;;;;17.53;100.00;101238.78;2014730;71;33487;-70
2022/05/15 16:51:24;;;;;;;99.27;91.07;;;;;;;17.63;100.00;101238.52;2002520;71;31375;-78
2022/05/15 16:57:08;;;;;;;103.87;94.77;;;;;;;17.66;100.00;101230.03;1961363;72;30918;-77
2022/05/15 17:02:54;;;;;;;103.97;95.33;;;;;;;17.63;100.00;101224.47;1944909;70;31138;-70
2022/05/15 17:08:39;;;;;;;106.33;97.67;;;;;;;17.61;100.00;101219.77;2018325;71;30897;-71
2022/05/15 17:14:23;;;;;;;109.03;100.47;;;;;;;17.57;100.00;101229.96;1995117;71;30889;-72
2022/05/15 17:20:10;;;;;;;116.23;107.00;;;;;;;17.52;100.00;101218.03;2014879;71;30991;-70
2022/05/15 17:25:54;;;;;;;104.87;96.23;;;;;;;17.60;100.00;101215.30;1997242;71;30877;-73
2022/05/15 17:37:42;;;;;;;109.23;100.83;;;;;;;17.53;100.00;101201.44;1991672;71;30961;-74
2022/05/15 17:43:29;;;;;;;104.23;95.63;;;;;;;17.63;100.00;101182.90;2015015;71;30953;-70
2022/05/15 17:49:14;;;;;;;108.33;99.30;;;;;;;17.67;100.00;101173.50;1996847;71;30870;-74
2022/05/15 17:54:58;;;;;;;111.87;103.23;;;;;;;17.67;100.00;101159.45;2016871;71;31010;-74
2022/05/15 18:00:43;;;;;;;101.73;93.33;;;;;;;17.68;100.00;101144.26;2000641;71;30829;-73
2022/05/15 18:06:28;;;;;;;106.00;97.47;;;;;;;17.57;100.00;101142.88;2003996;71;33339;-71
2022/05/15 18:12:16;;;;;;;104.13;95.73;;;;;;;17.58;100.00;101132.51;2014918;71;33318;-74
2022/05/15 18:17:59;;;;;;;100.90;92.40;;;;;;;17.58;100.00;101126.31;2005679;71;31131;-70
2022/05/15 18:24:00;;;;;;;102.57;94.47;;;;;;;17.59;100.00;101139.19;2007586;71;33061;-71
2022/05/15 18:29:44;;;;;;;106.37;97.97;;;;;;;17.58;100.00;101150.19;1991522;71;30897;-68
2022/05/15 18:35:29;;;;;;;105.13;96.40;;;;;;;17.50;100.00;101151.53;2004259;71;33427;-74
2022/05/15 18:41:14;;;;;;;105.00;96.57;;;;;;;17.44;100.00;101149.44;1998537;71;30893;-73
2022/05/15 18:47:00;;;;;;;105.40;97.37;;;;;;;17.38;100.00;101142.30;1996973;71;30877;-71
2022/05/15 18:58:47;;;;;;;103.77;96.07;;;;;;;17.40;100.00;101139.17;2013395;70;30895;-74
2022/05/15 19:04:33;;;;;;;107.53;99.43;;;;;;;17.35;100.00;101148.56;2004217;71;31384;-70
2022/05/15 19:10:17;;;;;;;103.80;95.80;;;;;;;17.33;100.00;101147.25;2017285;71;31465;-75
2022/05/15 19:16:03;;;;;;;103.83;95.73;;;;;;;17.22;100.00;101156.52;1997188;71;30817;-73
2022/05/15 19:21:52;;;;;;;99.83;92.47;;;;;;;17.12;100.00;101136.55;2002064;71;30998;-70
2022/05/15 19:27:36;;;;;;;104.20;96.10;;;;;;;17.08;100.00;101129.09;2014897;71;31485;-73
2022/05/15 19:33:23;;;;;;;105.13;96.70;;;;;;;17.05;100.00;101122.73;2016574;71;33119;-72
2022/05/15 19:39:09;;;;;;;106.93;99.23;;;;;;;17.06;100.00;101112.59;1998939;71;30827;-71
2022/05/15 19:44:54;;;;;;;104.03;95.60;;;;;;;16.88;100.00;101117.02;2011626;71;30884;-75
2022/05/15 19:50:39;;;;;;;105.53;96.93;;;;;;;16.76;100.00;101107.80;2000035;70;30974;-67
2022/05/15 19:56:31;;;;;;;103.27;95.43;;;;;;;16.70;100.00;101110.47;2008081;71;31282;-70
2022/05/15 20:02:16;;;;;;;100.10;92.20;;;;;;;16.64;100.00;101117.38;2011597;71;31364;-70
2022/05/15 20:14:06;;;;;;;101.30;93.50;;;;;;;16.71;100.00;101131.20;2002786;71;30899;-76
2022/05/15 20:19:51;;;;;;;100.47;92.60;;;;;;;16.76;100.00;101131.64;1998765;71;31435;-74
2022/05/15 20:25:35;;;;;;;101.37;93.47;;;;;;;16.77;100.00;101140.32;1995354;71;31406;-73
2022/05/15 20:31:22;;;;;;;98.27;90.47;;;;;;;16.73;100.00;101147.69;2015064;71;30907;-75
2022/05/15 20:37:08;;;;;;;102.23;95.00;;;;;;;16.67;100.00;101157.40;1998967;71;32915;-77
2022/05/15 20:42:52;;;;;;;98.23;90.97;;;;;;;16.71;100.00;101172.44;1997082;71;33308;-75
2022/05/15 20:48:36;;;;;;;98.03;90.73;;;;;;;16.71;100.00;101164.03;2000697;70;30844;-74
2022/05/15 20:54:23;;;;;;;95.80;88.87;;;;;;;16.67;100.00;101155.42;2012149;71;30844;-76
2022/05/15 21:00:10;;;;;;;96.77;89.70;;;;;;;16.64;100.00;101140.64;2015066;71;30991;-78
2022/05/15 21:05:54;;;;;;;97.80;89.93;;;;;;;16.37;100.00;101137.34;2016894;71;30925;-79
2022/05/15 21:11:47;;;;;;;99.93;92.67;;;;;;;16.39;100.00;101139.23;2009594;71;31386;-78
2022/05/15 21:17:31;;;;;;;98.50;90.87;;;;;;;16.33;100.00;101127.91;1998873;71;30898;-77
2022/05/15 21:23:16;;;;;;;96.17;88.53;;;;;;;16.33;100.00;101125.67;2006459;71;31337;-77
2022/05/15 21:29:00;;;;;;;97.40;89.77;;;;;;;16.29;100.00;101112.88;2004533;71;32886;-76
2022/05/15 21:34:44;;;;;;;99.40;92.03;;;;;;;16.37;100.00;101118.28;2015141;71;30968;-76
2022/05/15 21:46:31;;;;;;;91.77;84.37;;;;;;;16.31;100.00;101136.36;2002267;71;33547;-78
2022/05/15 21:52:15;;;;;;;100.07;92.60;;;;;;;16.21;100.00;101184.27;2002706;71;33323;-72
2022/05/15 21:58:00;;;;;;;95.73;88.20;;;;;;;16.30;100.00;101176.78;1994343;71;33496;-78
2022/05/15 22:04:12;;;;;;;94.43;87.53;;;;;;;16.36;100.00;101186.71;2014749;71;30940;-71
2022/05/15 22:09:58;;;;;;;96.90;89.77;;;;;;;16.43;100.00;101182.09;2015041;70;30886;-70
2022/05/15 22:15:43;;;;;;;93.93;86.10;;;;;;;16.21;100.00;101166.89;2005500;71;30940;-72
2022/05/15 22:21:27;;;;;;;95.63;88.07;;;;;;;15.88;100.00;101152.76;1995676;71;33293;-75
2022/05/15 22:27:12;;;;;;;99.47;91.27;;;;;;;15.75;100.00;101141.83;1997589;71;30805;-76
2022/05/15 22:32:57;;;;;;;93.30;85.60;;;;;;;15.77;100.00;101161.97;2015161;71;30962;-72
2022/05/15 22:38:42;;;;;;;94.23;86.50;;;;;;;15.79;100.00;101163.87;2013595;71;32870;-72
2022/05/15 22:44:26;;;;;;;97.83;89.77;;;;;;;15.45;100.00;101146.06;2005628;71;30992;-72
2022/05/15 22:50:12;;;;;;;96.40;88.33;;;;;;;15.63;100.00;101141.53;1999103;71;32806;-78
2022/05/15 22:55:57;;;;;;;101.67;92.97;;;;;;;15.66;100.00;101152.11;1995338;71;30892;-72
2022/05/15 23:01:42;;;;;;;102.20;93.87;;;;;;;15.41;100.00;101138.03;2016720;71;32844;-77
2022/05/15 23:07:29;;;;;;;103.33;94.37;;;;;;;15.61;100.00;101139.63;2002881;70;32825;-78
2022/05/15 23:13:14;;;;;;;104.77;95.43;;;;;;;15.67;100.00;101143.13;1997207;71;32822;-79
2022/05/15 23:18:59;;;;;;;102.53;93.97;;;;;;;15.53;100.00;101114.33;2015368;71;32883;-76
2022/05/15 23:24:52;;;;;;;106.83;97.73;;;;;;;15.40;100.00;101103.37;2013692;71;33359;-75
2022/05/15 23:30:36;;;;;;;107.43;98.30;;;;;;;15.28;100.00;101091.27;2001090;71;30821;-76